Kezdőlap
METAR-TAF:

METAR-TAF

Repülőterek :

Teherán, Irán

földrajzi szélesség: 35-41N, földrajzi hosszúság: 051-21E, magasság: 1204 m

Jelenlegi meteorológiai megfigyelések

A jelentés 25 perccel ezelõtt készült, 12:00 UTC
Délnyugati szél 10 kt
Hőmérséklet 22°C
Páratartalom 27%
Légköri nyomás 1020 hPa
Látótávolság 10 km, vagy több
Szórványos felhőzet 3500 lábon

METAR: OIII 181200Z 23010KT 9999 SCT035 22/02 Q1020 A3013 NOSIG

Idő: 15:55 (12:25 UTC)

Előrejelzés

A jelentés 55 perccel ezelõtt készült, 11:30 UTC
Az előrejelzés 18-én 12 óra UTC és 19-én 18 óra UTC között érvényes
Délnyugati szél 10 kt
Látótávolság: 8000 m
Szórványos felhőzet 3500 lábon

TAF: OIII 181130Z 1812/1918 23005MPS 8000 SCT035

Meteorológiai megfigyelések és előrejelzések több, mint 4000 repülőtéren (METAR és TAF jelentéseket).

A térképen piros és sárga pontok jelzik az elérhető meteorológiai állomásokat.

Mozgassa az egeret a pont fölött, hogy megjelenjen az állomás neve.

Azután kattintson az időjárási megfigyelések és előrejelzések megtekintéséhez.

A térkép megváltoztatása: kattintson a fekete keresztel jelölt zöld gombra ráközelítéshez, a vonallal jelölt zöld gombra távolításhoz, vagy a zöld nyilakra a szomszédos térképek eléréséhez.


METAR-TAF: